Domov               UVHVVR             MKGP            O straneh              
ZDRAVSTVENO VARSTVO RASTLIN
  MREŽA AGROMET. POSTAJ
 ► PROGNOSTIČNA OBVESTILA
AGROMETEOROLOŠKI PODATKI -
ARSO
OBVLADOVANJE TVEGANJ ZARADI
NEUGODNIH VREMENSKIH RAZMER
  ► NARAVNE NESREČE
  ► SUŠA/MOČA
  ► NAMAKANJE
  ► ŽLED (gozdarstvo)
KARTOGRAFSKI PRIKAZI
SPLETNE POVEZAVE
PROJEKTI IN PUBLIKACIJE

AGROMETEOROLOŠKA MREŽA: VREMENSKE POSTAJE IN FENOLOŠKA OPAZOVANJA

Pregled podatkov za lokacijo Potoče, meteorološka postaja 861648

Pregled senzorjev na lokaciji

ID Ime Zadnja
vrednost
Datum
zadnje
spremembe
Tip
senzorja
4072 Omočenost lista (U) 0 U 20.6.2018 16:00 A730WET
4073 Padavine (mm) 0 mm 20.6.2018 16:00 Rain-O-Matic
4071 Relativna vlaga 2 m (% RH) 44,54 % RH 20.6.2018 16:00 50YA
4070 Temperatura 2 m (°C) 30,99 °C 20.6.2018 16:00 50YA

Pregled podatkov zadnjih 24 ur

Zap.
št.
Datum in čas Potoče
Omočenost
lista
Padavine Relativna
vlaga
2
m
Temperatura
2
m
1 20.6.2018 16:30
2 20.6.2018 16:00
3 20.6.2018 15:30
4 20.6.2018 15:00 0 0 44,5 31
5 20.6.2018 14:30 0 0 45,2 30,7
6 20.6.2018 14:00 0 0 44,8 30,5
7 20.6.2018 13:30 0 0 45,1 30,3
8 20.6.2018 13:00 0 0 43,9 30,3
9 20.6.2018 12:30 0 0 45,7 30
10 20.6.2018 12:00 0 0 45,9 29,8
11 20.6.2018 11:30 0 0 45,5 29,7
12 20.6.2018 11:00 0 0 44,8 29,3
13 20.6.2018 10:30 0 0 44,6 28,9
14 20.6.2018 10:00 0 0 45,1 28,5
15 20.6.2018 09:30 0 0 47,3 28,6
16 20.6.2018 09:00 0 0 49,2 27,9
17 20.6.2018 08:30 0 0 49,2 27,1
18 20.6.2018 08:00 0 0 51 26,5
19 20.6.2018 07:30 0 0 51,7 25,8
20 20.6.2018 07:00 0 0 54,5 25,3
21 20.6.2018 06:30 0 0 56,1 24,5
22 20.6.2018 06:00 0 0 56,6 23,6
23 20.6.2018 05:30 0 0 57,3 22,8
24 20.6.2018 05:00 0 0 59,9 22
25 20.6.2018 04:30 0 0 70,9 20,1
26 20.6.2018 04:00 1 0 95,7 15,6
27 20.6.2018 03:30 1 0 96,2 15,3
28 20.6.2018 03:00 1 0 95,7 15,1
29 20.6.2018 02:30 1 0 95,6 15,5
30 20.6.2018 02:00 1 0 95,8 15,5
31 20.6.2018 01:30 1 0 95,1 15,4
32 20.6.2018 01:00 0 0 94,8 15,6
33 20.6.2018 00:30 0 0 94,3 15,8
34 20.6.2018 00:00 0 0 93,3 16
35 19.6.2018 23:30 0 0 92,1 16,4
36 19.6.2018 23:00 0 0 91,1 16,7
37 19.6.2018 22:30 0 0 88,3 17,3
38 19.6.2018 22:00 0 0 85,2 18,1
39 19.6.2018 21:30 0 0 81,8 18,8
40 19.6.2018 21:00 0 0 77,3 19,5
41 19.6.2018 20:30 0 0 78,4 20,1
42 19.6.2018 20:00 0 0 73,4 21,4
43 19.6.2018 19:30 0 0 65,8 23,7
44 19.6.2018 19:00 0 0 57,1 27,7
45 19.6.2018 18:30 0 0 47 29,6
46 19.6.2018 18:00 0 0 41,1 30,2
47 19.6.2018 17:30 0 0 40,2 29,9
48 19.6.2018 17:00 0 0 42,1 29,3
© 2011 Ministrstvo za kmetijstvo, gozdarstvo in prehrano. Vse pravice pridržane.